createdAt,value
2017-11-06T00:00:05.177Z,22.3
2017-11-06T00:02:04.880Z,22.3
2017-11-06T00:04:08.123Z,22.3
2017-11-06T00:06:04.792Z,22.3
2017-11-06T00:08:05.516Z,20.7
2017-11-06T00:10:09.894Z,22.3
2017-11-06T00:12:04.647Z,22.2
2017-11-06T00:14:10.476Z,22.2
2017-11-06T00:16:07.285Z,22.2
2017-11-06T00:18:04.718Z,22.2
2017-11-06T00:20:05.402Z,22.2
2017-11-06T00:22:04.839Z,22.2
2017-11-06T00:24:05.084Z,22.2
2017-11-06T00:26:04.824Z,22.2
2017-11-06T00:28:05.549Z,22.2
2017-11-06T00:30:05.274Z,22.2
2017-11-06T00:32:04.974Z,22.2
2017-11-06T00:34:04.932Z,22.2
2017-11-06T00:36:04.787Z,22.2
2017-11-06T00:38:10.589Z,22.1
2017-11-06T00:40:05.318Z,22.2
2017-11-06T00:42:05.141Z,22.1
2017-11-06T00:44:04.962Z,22.1
2017-11-06T00:46:04.696Z,22.1
2017-11-06T00:48:05.396Z,22.1
2017-11-06T00:50:07.716Z,22.1
2017-11-06T00:52:07.943Z,22.1
2017-11-06T00:54:05.174Z,22.1
2017-11-06T00:56:04.877Z,22.1
2017-11-06T00:58:04.739Z,22
2017-11-06T01:00:05.402Z,22
2017-11-06T01:02:07.144Z,22
2017-11-06T01:04:05.002Z,22
2017-11-06T01:06:04.705Z,22
2017-11-06T01:08:05.427Z,22
2017-11-06T01:10:05.167Z,22
2017-11-06T01:12:04.895Z,22
2017-11-06T01:14:04.664Z,22
2017-11-06T01:16:07.996Z,22
2017-11-06T01:18:04.982Z,22
2017-11-06T01:20:04.761Z,22
2017-11-06T01:22:05.656Z,22
2017-11-06T01:24:04.881Z,22
2017-11-06T01:26:05.561Z,22
2017-11-06T01:28:05.283Z,22
2017-11-06T01:30:05.007Z,21.9
2017-11-06T01:32:04.708Z,21.9
2017-11-06T01:34:08.034Z,21.9
2017-11-06T01:36:07.398Z,21.9
2017-11-06T01:38:07.700Z,21.9
2017-11-06T01:40:05.532Z,21.9
2017-11-06T01:42:07.848Z,21.9
2017-11-06T01:44:04.796Z,21.9
2017-11-06T01:46:05.544Z,21.9
2017-11-06T01:48:07.822Z,21.8
2017-11-06T01:50:05.611Z,21.8
2017-11-06T01:52:13.054Z,21.8
2017-11-06T01:54:04.732Z,21.8
2017-11-06T01:56:10.483Z,21.8
2017-11-06T01:58:05.219Z,21.8
2017-11-06T02:00:05.573Z,21.8
2017-11-06T02:02:07.435Z,21.8
2017-11-06T02:04:05.163Z,21.8
2017-11-06T02:06:05.504Z,21.8
2017-11-06T02:08:10.261Z,21.8
2017-11-06T02:10:05.049Z,21.7
2017-11-06T02:12:04.813Z,21.8
2017-11-06T02:14:05.597Z,21.8
2017-11-06T02:16:07.857Z,21.7
2017-11-06T02:18:04.821Z,21.7
2017-11-06T02:20:07.605Z,21.7
2017-11-06T02:22:07.992Z,21.7
2017-11-06T02:24:04.730Z,21.7
2017-11-06T02:26:05.462Z,21.7
2017-11-06T02:28:05.241Z,21.7
2017-11-06T02:30:05.016Z,21.7
2017-11-06T02:32:04.765Z,21.7
2017-11-06T02:34:05.136Z,21.7
2017-11-06T02:36:05.397Z,21.6
2017-11-06T02:38:15.184Z,21.6
2017-11-06T02:40:04.930Z,21.6
2017-11-06T02:42:05.276Z,21.6
2017-11-06T02:44:07.539Z,21.6
2017-11-06T02:46:07.904Z,21.6
2017-11-06T02:48:05.613Z,21.6
2017-11-06T02:50:05.485Z,21.6
2017-11-06T02:52:05.294Z,21.6
2017-11-06T02:54:08.093Z,21.6
2017-11-06T02:56:04.847Z,21.6
2017-11-06T02:58:05.618Z,21.5
2017-11-06T03:00:12.922Z,21.5
2017-11-06T03:02:04.664Z,21.5
2017-11-06T03:04:05.359Z,21.5
2017-11-06T03:06:07.584Z,21.5
2017-11-06T03:08:05.303Z,21.5
2017-11-06T03:10:05.029Z,21.5
2017-11-06T03:12:05.265Z,21.5
2017-11-06T03:14:05.502Z,21.5
2017-11-06T03:16:04.743Z,21.5
2017-11-06T03:18:04.665Z,21.5
2017-11-06T03:20:05.430Z,21.5
2017-11-06T03:22:10.215Z,21.4
2017-11-06T03:24:04.910Z,21.4
2017-11-06T03:26:05.656Z,21.4
2017-11-06T03:28:05.534Z,21.4
2017-11-06T03:30:05.206Z,21.4
2017-11-06T03:32:05.499Z,21.4
2017-11-06T03:34:04.726Z,21.4
2017-11-06T03:36:05.048Z,21.4
2017-11-06T03:38:04.874Z,21.4
2017-11-06T03:40:04.653Z,21.4
2017-11-06T03:42:05.322Z,21.4
2017-11-06T03:44:05.062Z,21.4
2017-11-06T03:46:04.883Z,21.4
2017-11-06T03:48:04.764Z,21.4
2017-11-06T03:50:08.010Z,21.4
2017-11-06T03:52:04.713Z,21.4
2017-11-06T03:54:07.954Z,21.3
2017-11-06T03:56:07.211Z,21.3
2017-11-06T03:58:05.004Z,21.3
2017-11-06T04:00:04.754Z,21.3
2017-11-06T04:02:05.441Z,21.4
2017-11-06T04:04:05.140Z,21.3
2017-11-06T04:06:09.911Z,21.3
2017-11-06T04:08:05.616Z,21.3
2017-11-06T04:10:04.881Z,21.4
2017-11-06T04:12:04.706Z,21.3
2017-11-06T04:14:10.501Z,21.3
2017-11-06T04:16:04.719Z,21.3
2017-11-06T04:18:05.667Z,21.3
2017-11-06T04:20:05.331Z,21.3
2017-11-06T04:22:05.079Z,21.3
2017-11-06T04:24:12.403Z,21.3
2017-11-06T04:26:05.264Z,21.3
2017-11-06T04:28:05.033Z,21.3
2017-11-06T04:30:04.749Z,21.3
2017-11-06T04:32:05.519Z,21.2
2017-11-06T04:34:05.276Z,21.2
2017-11-06T04:36:05.081Z,21.2
2017-11-06T04:38:07.343Z,21.2
2017-11-06T04:40:05.047Z,21.2
2017-11-06T04:42:04.964Z,21.2
2017-11-06T04:44:04.684Z,21.2
2017-11-06T04:46:05.421Z,21.2
2017-11-06T04:48:05.087Z,21.2
2017-11-06T04:50:04.802Z,21.2
2017-11-06T04:52:05.523Z,21.2
2017-11-06T04:54:05.201Z,21.2
2017-11-06T04:56:05.475Z,21.1
2017-11-06T04:58:05.313Z,21.1
2017-11-06T05:00:04.964Z,21.1
2017-11-06T05:02:19.836Z,21.1
2017-11-06T05:04:05.159Z,21.1
2017-11-06T05:06:05.346Z,21.1
2017-11-06T05:08:07.588Z,21.1
2017-11-06T05:10:05.448Z,21.1
2017-11-06T05:12:05.230Z,21.1
2017-11-06T05:14:07.536Z,21.1
2017-11-06T05:16:07.801Z,21.1
2017-11-06T05:18:07.353Z,21.1
2017-11-06T05:20:10.197Z,21.1
2017-11-06T05:22:12.619Z,21.2
2017-11-06T05:24:08.018Z,21.2
2017-11-06T05:26:04.833Z,21.2
2017-11-06T05:28:05.683Z,21.2
2017-11-06T05:30:08.046Z,21.2
2017-11-06T05:32:10.404Z,21.2
2017-11-06T05:34:05.418Z,21.2
2017-11-06T05:36:04.673Z,21.2
2017-11-06T05:38:05.465Z,21.2
2017-11-06T05:40:04.724Z,21.2
2017-11-06T05:42:05.434Z,21.2
2017-11-06T05:44:05.138Z,21.2
2017-11-06T05:46:04.871Z,21.2
2017-11-06T05:48:05.550Z,21.2
2017-11-06T05:50:05.317Z,21.2
2017-11-06T05:52:05.120Z,21.3
2017-11-06T05:54:04.857Z,21.3
2017-11-06T05:56:08.142Z,21.2
2017-11-06T05:58:07.391Z,21.2
2017-11-06T06:00:05.232Z,21.2
2017-11-06T06:02:07.494Z,21.2
2017-11-06T06:04:05.402Z,21.2
2017-11-06T06:06:05.086Z,21.3
2017-11-06T06:08:04.806Z,21.2
2017-11-06T06:10:05.633Z,21.2
2017-11-06T06:12:05.414Z,21.2
2017-11-06T06:14:05.113Z,21.2
2017-11-06T06:16:04.804Z,21.2
2017-11-06T06:18:05.310Z,21.2
2017-11-06T06:20:05.557Z,21.2
2017-11-06T06:22:05.420Z,21.2
2017-11-06T06:24:05.158Z,21.2
2017-11-06T06:26:04.882Z,21.2
2017-11-06T06:28:04.619Z,21.2
2017-11-06T06:30:07.844Z,21.1
2017-11-06T06:32:10.633Z,21.1
2017-11-06T06:34:07.518Z,21.1
2017-11-06T06:36:05.316Z,21.1
2017-11-06T06:38:04.985Z,21.1
2017-11-06T06:40:04.725Z,21.1
2017-11-06T06:42:10.496Z,21.1
2017-11-06T06:44:07.249Z,21.1
2017-11-06T06:46:05.046Z,21.1
2017-11-06T06:48:04.768Z,21.1
2017-11-06T06:50:05.525Z,21.1
2017-11-06T06:52:05.263Z,21.1
2017-11-06T06:54:05.503Z,21.1
2017-11-06T06:56:04.725Z,21.1
2017-11-06T06:58:08.069Z,21.1
2017-11-06T07:00:04.782Z,21.1
2017-11-06T07:02:05.524Z,21.1
2017-11-06T07:04:05.203Z,21.1
2017-11-06T07:06:04.928Z,21.1
2017-11-06T07:08:07.201Z,21.1
2017-11-06T07:10:04.937Z,21.1
2017-11-06T07:12:04.639Z,21
2017-11-06T07:14:07.983Z,21
2017-11-06T07:16:05.283Z,21
2017-11-06T07:18:05.191Z,21
2017-11-06T07:20:04.923Z,21
2017-11-06T07:22:05.136Z,21
2017-11-06T07:24:04.818Z,21
2017-11-06T07:26:05.149Z,21
2017-11-06T07:28:04.999Z,21
2017-11-06T07:30:04.714Z,21
2017-11-06T07:32:05.557Z,21
2017-11-06T07:34:05.371Z,21
2017-11-06T07:36:05.077Z,20.9
2017-11-06T07:38:04.814Z,21
2017-11-06T07:40:05.037Z,21
2017-11-06T07:42:05.247Z,20.9
2017-11-06T07:44:04.957Z,20.9
2017-11-06T07:46:04.699Z,20.9
2017-11-06T07:48:05.493Z,20.9
2017-11-06T07:50:05.330Z,20.9
2017-11-06T07:52:08.058Z,21
2017-11-06T07:54:04.745Z,21
2017-11-06T07:56:05.436Z,21
2017-11-06T07:58:05.145Z,21
2017-11-06T08:00:04.875Z,21
2017-11-06T08:02:08.093Z,21
2017-11-06T08:04:05.428Z,20.9
2017-11-06T08:06:07.678Z,21
2017-11-06T08:08:05.387Z,21
2017-11-06T08:10:05.143Z,20.9
2017-11-06T08:12:05.336Z,20.9
2017-11-06T08:14:05.017Z,20.9
2017-11-06T08:16:04.756Z,20.9
2017-11-06T08:18:12.253Z,20.9
2017-11-06T08:20:05.264Z,20.9
2017-11-06T08:22:05.088Z,20.9
2017-11-06T08:24:07.319Z,20.9
2017-11-06T08:26:05.206Z,20.9
2017-11-06T08:28:04.892Z,20.9
2017-11-06T08:30:05.553Z,20.9
2017-11-06T08:32:05.222Z,20.9
2017-11-06T08:34:05.506Z,20.9
2017-11-06T08:36:05.184Z,20.9
2017-11-06T08:38:04.888Z,20.9
2017-11-06T08:40:05.616Z,20.9
2017-11-06T08:42:07.827Z,20.9
2017-11-06T08:44:05.548Z,20.9
2017-11-06T08:46:05.539Z,20.9
2017-11-06T08:48:05.222Z,20.9
2017-11-06T08:50:07.452Z,20.8
2017-11-06T08:52:05.194Z,20.8
2017-11-06T08:54:05.549Z,20.9
2017-11-06T08:56:05.290Z,20.9
2017-11-06T08:58:10.359Z,20.8
2017-11-06T09:00:05.243Z,20.8
2017-11-06T09:02:05.444Z,20.8
2017-11-06T09:04:07.717Z,20.8
2017-11-06T09:06:05.445Z,20.8
2017-11-06T09:08:05.196Z,20.8
2017-11-06T09:10:04.977Z,20.8
2017-11-06T09:12:04.678Z,20.8
2017-11-06T09:14:07.992Z,20.8
2017-11-06T09:16:12.920Z,20.8
2017-11-06T09:18:04.814Z,20.8
2017-11-06T09:20:07.636Z,20.8
2017-11-06T09:22:05.346Z,20.8
2017-11-06T09:24:05.144Z,20.8
2017-11-06T09:26:07.860Z,20.8
2017-11-06T09:28:04.754Z,20.8
2017-11-06T09:30:05.494Z,20.9
2017-11-06T09:32:05.234Z,20.9
2017-11-06T09:34:05.546Z,20.9
2017-11-06T09:36:05.329Z,20.9
2017-11-06T09:38:04.752Z,20.9
2017-11-06T09:40:11.882Z,20.8
2017-11-06T09:42:04.878Z,20.9
2017-11-06T09:44:13.179Z,20.9
2017-11-06T09:46:04.949Z,20.9
2017-11-06T09:48:04.692Z,20.9
2017-11-06T09:50:05.398Z,20.8
2017-11-06T09:52:05.166Z,20.8
2017-11-06T09:54:14.981Z,20.8
2017-11-06T09:56:04.677Z,20.8
2017-11-06T09:58:05.440Z,20.8
2017-11-06T10:00:10.301Z,20.8
2017-11-06T10:02:10.100Z,20.8
2017-11-06T10:04:04.787Z,20.8
2017-11-06T10:06:05.448Z,20.8
2017-11-06T10:08:05.156Z,20.8
2017-11-06T10:10:04.928Z,20.8
2017-11-06T10:12:07.164Z,20.8
2017-11-06T10:14:07.410Z,20.7
2017-11-06T10:16:05.134Z,20.7
2017-11-06T10:18:05.101Z,20.7
2017-11-06T10:20:05.366Z,20.7
2017-11-06T10:22:05.145Z,20.7
2017-11-06T10:24:04.848Z,20.7
2017-11-06T10:26:05.597Z,20.7
2017-11-06T10:28:05.385Z,20.7
2017-11-06T10:30:05.114Z,20.7
2017-11-06T10:32:12.648Z,20.7
2017-11-06T10:34:05.478Z,20.7
2017-11-06T10:36:04.767Z,20.7
2017-11-06T10:38:10.528Z,20.6
2017-11-06T10:40:05.334Z,20.6
2017-11-06T10:42:05.010Z,20.6
2017-11-06T10:44:04.920Z,20.6
2017-11-06T10:46:04.627Z,20.6
2017-11-06T10:48:05.301Z,20.6
2017-11-06T10:50:07.597Z,20.6
2017-11-06T10:52:08.003Z,20.6
2017-11-06T10:54:04.733Z,20.6
2017-11-06T10:56:05.459Z,20.6
2017-11-06T10:58:05.230Z,20.6
2017-11-06T11:00:04.929Z,20.6
2017-11-06T11:02:04.662Z,20.6
2017-11-06T11:04:05.384Z,20.6
2017-11-06T11:06:05.157Z,20.6
2017-11-06T11:08:09.919Z,20.6
2017-11-06T11:10:04.744Z,20.6
2017-11-06T11:12:05.512Z,20.6
2017-11-06T11:14:07.834Z,20.6
2017-11-06T11:16:07.638Z,20.5
2017-11-06T11:18:05.605Z,20.5
2017-11-06T11:20:05.363Z,20.5
2017-11-06T11:22:05.207Z,20.5
2017-11-06T11:24:08.039Z,20.5
2017-11-06T11:26:05.281Z,20.5
2017-11-06T11:28:08.065Z,20.5
2017-11-06T11:30:04.852Z,20.5
2017-11-06T11:32:05.514Z,20.5
2017-11-06T11:34:07.755Z,20.5
2017-11-06T11:36:05.451Z,20.5
2017-11-06T11:38:05.383Z,20.5
2017-11-06T11:40:27.912Z,20.5
2017-11-06T11:42:07.701Z,20.5
2017-11-06T11:44:05.481Z,20.5
2017-11-06T11:46:04.956Z,20.5
2017-11-06T11:48:04.805Z,20.5
2017-11-06T11:50:05.055Z,20.5
2017-11-06T11:52:07.365Z,20.5
2017-11-06T11:54:05.128Z,20.5
2017-11-06T11:56:05.376Z,20.5
2017-11-06T11:58:07.728Z,20.5
2017-11-06T12:00:10.544Z,20.5
2017-11-06T12:02:07.849Z,20.5
2017-11-06T12:04:05.562Z,20.5
2017-11-06T12:06:07.910Z,20.5
2017-11-06T12:08:09.879Z,20.5
2017-11-06T12:10:08.186Z,20.4
2017-11-06T12:12:04.872Z,20.5
2017-11-06T12:14:05.571Z,20.4
2017-11-06T12:16:10.507Z,20.4
2017-11-06T12:18:05.507Z,20.4
2017-11-06T12:20:07.267Z,20.4
2017-11-06T12:22:07.626Z,20.4
2017-11-06T12:24:04.843Z,20.4
2017-11-06T12:26:05.611Z,20.4
2017-11-06T12:28:05.353Z,20.4
2017-11-06T12:30:12.762Z,20.4
2017-11-06T12:32:05.534Z,20.4
2017-11-06T12:34:05.255Z,20.4
2017-11-06T12:36:07.506Z,20.4
2017-11-06T12:38:05.234Z,20.4
2017-11-06T12:40:05.103Z,20.3
2017-11-06T12:42:04.835Z,20.4
2017-11-06T12:44:07.715Z,20.4
2017-11-06T12:46:05.522Z,20.4
2017-11-06T12:48:07.816Z,20.4
2017-11-06T12:50:05.560Z,20.4
2017-11-06T12:52:05.384Z,20.4
2017-11-06T12:54:05.235Z,20.4
2017-11-06T12:56:04.979Z,20.4
2017-11-06T12:58:05.625Z,20.4
2017-11-06T13:00:07.876Z,20.4
2017-11-06T13:02:13.130Z,20.4
2017-11-06T13:04:07.462Z,20.4
2017-11-06T13:06:05.217Z,20.5
2017-11-06T13:08:05.451Z,20.5
2017-11-06T13:10:05.329Z,20.4
2017-11-06T13:12:05.031Z,20.4
2017-11-06T13:14:04.832Z,20.4
2017-11-06T13:16:05.720Z,20.5
2017-11-06T13:18:04.711Z,20.4
2017-11-06T13:20:05.453Z,20.5
2017-11-06T13:22:05.296Z,20.5
2017-11-06T13:24:05.032Z,20.5
2017-11-06T13:26:07.308Z,20.5
2017-11-06T13:28:05.596Z,20.5
2017-11-06T13:30:05.321Z,20.5
2017-11-06T13:32:05.130Z,20.5
2017-11-06T13:34:04.897Z,20.5
2017-11-06T13:36:05.236Z,20.5
2017-11-06T13:38:05.075Z,20.5
2017-11-06T13:40:04.780Z,20.5
2017-11-06T13:42:08.040Z,20.5
2017-11-06T13:44:04.736Z,20.5
2017-11-06T13:46:05.180Z,20.6
2017-11-06T13:48:04.859Z,20.5
2017-11-06T13:50:05.153Z,20.5
2017-11-06T13:52:05.601Z,20.5
2017-11-06T13:54:06.383Z,20.5
2017-11-06T13:56:10.187Z,20.5
2017-11-06T13:58:10.903Z,20.5
2017-11-06T14:00:07.180Z,20.6
2017-11-06T14:02:04.878Z,20.6
2017-11-06T14:04:07.448Z,20.5
2017-11-06T14:06:12.712Z,20.6
2017-11-06T14:08:04.655Z,20.6
2017-11-06T14:10:10.760Z,20.5
2017-11-06T14:12:18.153Z,20.5
2017-11-06T14:14:07.396Z,20.6
2017-11-06T14:16:05.245Z,20.5
2017-11-06T14:18:05.181Z,20.6
2017-11-06T14:20:04.933Z,20.5
2017-11-06T14:22:07.242Z,20.5
2017-11-06T14:24:04.946Z,20.5
2017-11-06T14:26:04.651Z,20.5
2017-11-06T14:28:05.624Z,20.5
2017-11-06T14:30:05.329Z,20.5
2017-11-06T14:32:10.176Z,20.5
2017-11-06T14:34:05.231Z,20.5
2017-11-06T14:36:04.956Z,20.4
2017-11-06T14:38:07.392Z,20.4
2017-11-06T14:40:07.781Z,20.4
2017-11-06T14:42:05.489Z,20.4
2017-11-06T14:44:10.268Z,20.4
2017-11-06T14:46:05.007Z,20.4
2017-11-06T14:48:04.708Z,20.4
2017-11-06T14:50:05.529Z,20.4
2017-11-06T14:52:05.343Z,20.4
2017-11-06T14:54:05.080Z,20.4
2017-11-06T14:56:05.566Z,20.4
2017-11-06T14:58:04.901Z,20.4
2017-11-06T15:00:08.091Z,20.4
2017-11-06T15:02:04.796Z,20.4
2017-11-06T15:04:05.505Z,20.4
2017-11-06T15:06:05.476Z,20.4
2017-11-06T15:08:05.256Z,20.4
2017-11-06T15:10:05.097Z,20.4
2017-11-06T15:12:04.816Z,20.4
2017-11-06T15:14:05.507Z,20.4
2017-11-06T15:16:05.234Z,20.4
2017-11-06T15:18:05.186Z,20.4
2017-11-06T15:20:04.907Z,20.4
2017-11-06T15:22:05.347Z,20.4
2017-11-06T15:24:05.157Z,20.4
2017-11-06T15:26:04.905Z,20.4
2017-11-06T15:28:05.751Z,20.4
2017-11-06T15:30:05.512Z,20.3
2017-11-06T15:32:07.790Z,20.3
2017-11-06T15:34:05.521Z,20.3
2017-11-06T15:36:05.249Z,20.3
2017-11-06T15:38:05.049Z,20.3
2017-11-06T15:40:10.387Z,20.3
2017-11-06T15:42:05.134Z,20.3
2017-11-06T15:44:07.457Z,20.3
2017-11-06T15:46:05.288Z,20.4
2017-11-06T15:48:05.035Z,20.3
2017-11-06T15:50:04.965Z,20.4
2017-11-06T15:52:04.679Z,20.4
2017-11-06T15:54:05.389Z,20.4
2017-11-06T15:56:07.587Z,20.4
2017-11-06T15:58:05.339Z,20.4
2017-11-06T16:00:05.041Z,20.4
2017-11-06T16:02:04.727Z,20.4
2017-11-06T16:04:05.498Z,20.5
2017-11-06T16:06:04.941Z,20.5
2017-11-06T16:08:07.207Z,20.5
2017-11-06T16:10:05.214Z,20.5
2017-11-06T16:12:04.969Z,20.5
2017-11-06T16:14:04.665Z,20.5
2017-11-06T16:16:06.007Z,20.5
2017-11-06T16:18:05.063Z,20.6
2017-11-06T16:20:09.784Z,20.5
2017-11-06T16:22:05.125Z,20.5
2017-11-06T16:24:04.860Z,20.6
2017-11-06T16:26:05.712Z,20.6
2017-11-06T16:28:05.375Z,20.6
2017-11-06T16:30:05.479Z,20.6
2017-11-06T16:32:05.175Z,20.7
2017-11-06T16:34:05.146Z,20.7
2017-11-06T16:36:07.934Z,20.7
2017-11-06T16:38:04.629Z,20.7
2017-11-06T16:40:05.476Z,20.7
2017-11-06T16:42:08.251Z,20.7
2017-11-06T16:44:05.087Z,20.7
2017-11-06T16:46:04.888Z,20.8
2017-11-06T16:48:05.151Z,20.8
2017-11-06T16:50:05.421Z,20.8
2017-11-06T16:52:04.644Z,20.8
2017-11-06T16:54:05.298Z,20.8
2017-11-06T16:56:10.261Z,20.8
2017-11-06T16:58:06.276Z,20.8
2017-11-06T17:00:05.004Z,20.8
2017-11-06T17:02:04.721Z,20.8
2017-11-06T17:04:05.697Z,20.8
2017-11-06T17:06:05.448Z,20.8
2017-11-06T17:08:10.239Z,20.8
2017-11-06T17:10:05.540Z,20.7
2017-11-06T17:12:07.789Z,20.8
2017-11-06T17:14:05.579Z,20.7
2017-11-06T17:16:07.878Z,20.8
2017-11-06T17:18:05.360Z,20.8
2017-11-06T17:20:07.693Z,20.8
2017-11-06T17:22:04.957Z,20.8
2017-11-06T17:24:04.691Z,20.8
2017-11-06T17:26:05.428Z,20.8
2017-11-06T17:28:05.329Z,20.9
2017-11-06T17:30:07.742Z,20.9
2017-11-06T17:32:05.158Z,20.8
2017-11-06T17:34:04.918Z,20.8
2017-11-06T17:36:07.229Z,20.9
2017-11-06T17:38:04.917Z,20.9
2017-11-06T17:40:10.702Z,20.9
2017-11-06T17:42:05.430Z,20.9
2017-11-06T17:44:05.149Z,20.9
2017-11-06T17:46:04.935Z,20.9
2017-11-06T17:48:05.243Z,20.9
2017-11-06T17:50:04.964Z,20.9
2017-11-06T17:52:07.301Z,20.9
2017-11-06T17:54:04.985Z,20.9
2017-11-06T17:56:04.700Z,20.9
2017-11-06T17:58:07.976Z,20.9
2017-11-06T18:00:07.187Z,20.9
2017-11-06T18:02:05.469Z,20.9
2017-11-06T18:04:05.277Z,21
2017-11-06T18:06:05.555Z,21
2017-11-06T18:08:10.303Z,20.9
2017-11-06T18:10:05.017Z,21
2017-11-06T18:12:04.836Z,20.9
2017-11-06T18:14:05.540Z,20.9
2017-11-06T18:16:08.066Z,20.9
2017-11-06T18:18:07.522Z,21
2017-11-06T18:20:05.242Z,21
2017-11-06T18:22:05.000Z,21
2017-11-06T18:24:07.730Z,21
2017-11-06T18:26:05.483Z,21
2017-11-06T18:28:05.259Z,21
2017-11-06T18:30:05.052Z,21
2017-11-06T18:32:04.792Z,21
2017-11-06T18:34:10.678Z,21
2017-11-06T18:36:05.387Z,21.1
2017-11-06T18:38:05.267Z,21.1
2017-11-06T18:40:05.140Z,21.1
2017-11-06T18:42:04.885Z,21.1
2017-11-06T18:44:07.262Z,21
2017-11-06T18:46:05.040Z,21.1
2017-11-06T18:48:05.310Z,21.1
2017-11-06T18:50:05.034Z,21.1
2017-11-06T18:52:05.484Z,21.1
2017-11-06T18:54:05.187Z,21.1
2017-11-06T18:56:05.485Z,21.1
2017-11-06T18:58:05.279Z,21.1
2017-11-06T19:00:05.027Z,21.1
2017-11-06T19:02:04.750Z,21.1
2017-11-06T19:04:05.021Z,21.1
2017-11-06T19:06:05.181Z,21.1
2017-11-06T19:08:04.934Z,21.1
2017-11-06T19:10:04.668Z,21.2
2017-11-06T19:12:07.894Z,21.2
2017-11-06T19:14:05.611Z,21.2
2017-11-06T19:16:05.079Z,21.2
2017-11-06T19:18:07.634Z,21.2
2017-11-06T19:20:10.460Z,21.2
2017-11-06T19:22:05.245Z,21.1
2017-11-06T19:24:05.038Z,21.2
2017-11-06T19:26:04.857Z,21.2
2017-11-06T19:28:05.273Z,21.1
2017-11-06T19:30:04.998Z,21.2
2017-11-06T19:32:04.798Z,21.2
2017-11-06T19:34:05.633Z,21.2
2017-11-06T19:36:07.854Z,21.2
2017-11-06T19:38:10.562Z,21.2
2017-11-06T19:40:05.034Z,21.2
2017-11-06T19:42:04.826Z,21.2
2017-11-06T19:44:05.613Z,21.2
2017-11-06T19:46:07.900Z,21.3
2017-11-06T19:48:08.147Z,21.3
2017-11-06T19:50:04.852Z,21.3
2017-11-06T19:52:04.917Z,21.3
2017-11-06T19:54:05.244Z,21.3
2017-11-06T19:56:04.993Z,21.3
2017-11-06T19:58:04.719Z,21.3
2017-11-06T20:00:05.532Z,21.3
2017-11-06T20:02:10.378Z,21.2
2017-11-06T20:04:04.720Z,21.2
2017-11-06T20:06:05.560Z,21.3
2017-11-06T20:08:05.068Z,21.3
2017-11-06T20:10:05.412Z,21.3
2017-11-06T20:12:09.699Z,21.3
2017-11-06T20:14:05.620Z,21.3
2017-11-06T20:16:07.554Z,21.3
2017-11-06T20:18:11.572Z,21.3
2017-11-06T20:20:07.462Z,21.3
2017-11-06T20:22:07.955Z,21.4
2017-11-06T20:24:04.877Z,21.3
2017-11-06T20:26:05.580Z,21.3
2017-11-06T20:28:07.899Z,21.4
2017-11-06T20:30:04.897Z,21.4
2017-11-06T20:32:04.622Z,21.4
2017-11-06T20:34:05.386Z,21.3
2017-11-06T20:36:05.327Z,21.4
2017-11-06T20:38:05.010Z,21.3
2017-11-06T20:40:04.773Z,21.3
2017-11-06T20:42:07.307Z,21.3
2017-11-06T20:44:05.275Z,21.3
2017-11-06T20:46:12.615Z,21.3
2017-11-06T20:48:05.350Z,21.3
2017-11-06T20:50:05.040Z,21.3
2017-11-06T20:52:04.862Z,21.3
2017-11-06T20:54:05.832Z,21.3
2017-11-06T20:56:07.279Z,21.3
2017-11-06T20:58:05.165Z,21.3
2017-11-06T21:00:17.359Z,21.3
2017-11-06T21:02:05.159Z,21.3
2017-11-06T21:04:04.998Z,21.3
2017-11-06T21:06:05.542Z,21.3
2017-11-06T21:08:04.762Z,21.3
2017-11-06T21:10:05.523Z,21.3
2017-11-06T21:12:15.335Z,21.3
2017-11-06T21:14:05.168Z,21.3
2017-11-06T21:16:04.959Z,21.3
2017-11-06T21:18:04.845Z,21.3
2017-11-06T21:20:05.502Z,21.3
2017-11-06T21:22:07.852Z,21.3
2017-11-06T21:24:04.795Z,21.3
2017-11-06T21:26:04.710Z,21.3
2017-11-06T21:28:08.054Z,21.3
2017-11-06T21:30:04.900Z,21.3
2017-11-06T21:32:08.160Z,21.3
2017-11-06T21:34:04.860Z,21.4
2017-11-06T21:36:05.097Z,21.3
2017-11-06T21:38:05.062Z,21.3
2017-11-06T21:40:04.892Z,21.3
2017-11-06T21:42:05.571Z,21.3
2017-11-06T21:44:05.425Z,21.3
2017-11-06T21:46:05.198Z,21.3
2017-11-06T21:48:04.897Z,21.3
2017-11-06T21:50:04.839Z,21.3
2017-11-06T21:52:04.711Z,21.3
2017-11-06T21:54:05.418Z,21.3
2017-11-06T21:56:05.118Z,21.3
2017-11-06T21:58:04.831Z,21.3
2017-11-06T22:00:08.053Z,21.3
2017-11-06T22:02:04.776Z,21.3
2017-11-06T22:04:05.677Z,21.3
2017-11-06T22:06:07.915Z,21.3
2017-11-06T22:08:04.658Z,21.3
2017-11-06T22:10:04.895Z,21.3
2017-11-06T22:12:07.387Z,21.3
2017-11-06T22:14:05.155Z,21.3
2017-11-06T22:16:04.944Z,21.3
2017-11-06T22:18:04.979Z,21.3
2017-11-06T22:20:07.272Z,21.3
2017-11-06T22:22:05.085Z,21.3
2017-11-06T22:24:04.870Z,21.3
2017-11-06T22:26:05.071Z,21.3
2017-11-06T22:28:05.426Z,21.3
2017-11-06T22:30:05.129Z,21.3
2017-11-06T22:32:04.848Z,21.3
2017-11-06T22:34:05.597Z,21.3
2017-11-06T22:36:05.093Z,21.3
2017-11-06T22:38:10.524Z,21.3
2017-11-06T22:40:05.288Z,21.3
2017-11-06T22:42:10.045Z,21.3
2017-11-06T22:44:07.281Z,21.3
2017-11-06T22:46:05.049Z,21.3
2017-11-06T22:48:04.759Z,21.3
2017-11-06T22:50:05.490Z,21.3
2017-11-06T22:52:04.876Z,21.3
2017-11-06T22:54:05.580Z,21.3
2017-11-06T22:56:10.385Z,21.3
2017-11-06T22:58:05.193Z,21.3
2017-11-06T23:00:07.429Z,21.3
2017-11-06T23:02:04.664Z,21.3
2017-11-06T23:04:05.381Z,21.3
2017-11-06T23:06:05.083Z,21.3
2017-11-06T23:08:04.748Z,21.3
2017-11-06T23:10:05.515Z,21.3
2017-11-06T23:12:05.222Z,21.4
2017-11-06T23:14:04.979Z,21.3
2017-11-06T23:16:05.250Z,21.3
2017-11-06T23:18:05.150Z,21.3
2017-11-06T23:20:04.964Z,21.3
2017-11-06T23:22:04.681Z,21.3
2017-11-06T23:24:05.431Z,21.2
2017-11-06T23:26:04.789Z,21.2
2017-11-06T23:28:08.171Z,21.3
2017-11-06T23:30:04.876Z,21.3
2017-11-06T23:32:05.593Z,21.3
2017-11-06T23:34:05.317Z,21.3
2017-11-06T23:36:10.144Z,21.2
2017-11-06T23:38:04.894Z,21.2
2017-11-06T23:40:08.224Z,21.2
2017-11-06T23:42:09.972Z,21.2
2017-11-06T23:44:04.677Z,21.2
2017-11-06T23:46:05.440Z,21.2
2017-11-06T23:48:05.227Z,21.2
2017-11-06T23:50:04.949Z,21.2
2017-11-06T23:52:05.177Z,21.2
2017-11-06T23:54:05.474Z,21.1
2017-11-06T23:56:05.193Z,21.2
2017-11-06T23:58:04.969Z,21.1
